sensor_id;sensor_type;location;lat;lon;timestamp;P1;durP1;ratioP1;P2;durP2;ratioP2
66800;SDS011;53703;50.326;19.122;2023-11-21T00:02:32;8.00;;;3.30;;
66800;SDS011;53703;50.326;19.122;2023-11-21T00:05:08;8.50;;;3.60;;
66800;SDS011;53703;50.326;19.122;2023-11-21T00:07:43;10.10;;;3.70;;
66800;SDS011;53703;50.326;19.122;2023-11-21T00:10:16;7.50;;;3.60;;
66800;SDS011;53703;50.326;19.122;2023-11-21T00:12:50;9.40;;;3.50;;
66800;SDS011;53703;50.326;19.122;2023-11-21T00:15:26;9.00;;;3.70;;
66800;SDS011;53703;50.326;19.122;2023-11-21T00:17:59;9.70;;;4.10;;
66800;SDS011;53703;50.326;19.122;2023-11-21T00:20:33;7.90;;;3.40;;
66800;SDS011;53703;50.326;19.122;2023-11-21T00:23:06;9.70;;;4.20;;
66800;SDS011;53703;50.326;19.122;2023-11-21T00:25:40;8.80;;;3.40;;
66800;SDS011;53703;50.326;19.122;2023-11-21T00:28:14;6.70;;;3.50;;
66800;SDS011;53703;50.326;19.122;2023-11-21T00:30:48;6.40;;;3.40;;
66800;SDS011;53703;50.326;19.122;2023-11-21T00:33:21;7.60;;;3.60;;
66800;SDS011;53703;50.326;19.122;2023-11-21T00:35:56;7.50;;;3.30;;
66800;SDS011;53703;50.326;19.122;2023-11-21T00:38:29;9.50;;;3.80;;
66800;SDS011;53703;50.326;19.122;2023-11-21T00:41:03;7.50;;;3.50;;
66800;SDS011;53703;50.326;19.122;2023-11-21T00:43:39;6.80;;;3.40;;
66800;SDS011;53703;50.326;19.122;2023-11-21T00:46:12;6.60;;;3.20;;
66800;SDS011;53703;50.326;19.122;2023-11-21T00:48:46;6.00;;;3.30;;
66800;SDS011;53703;50.326;19.122;2023-11-21T00:51:19;9.00;;;3.30;;
66800;SDS011;53703;50.326;19.122;2023-11-21T00:53:53;6.40;;;3.20;;
66800;SDS011;53703;50.326;19.122;2023-11-21T00:56:27;6.90;;;3.20;;
66800;SDS011;53703;50.326;19.122;2023-11-21T00:59:00;8.30;;;3.30;;
66800;SDS011;53703;50.326;19.122;2023-11-21T01:01:33;6.40;;;3.40;;
66800;SDS011;53703;50.326;19.122;2023-11-21T01:04:08;5.40;;;3.10;;
66800;SDS011;53703;50.326;19.122;2023-11-21T01:06:42;7.40;;;3.30;;
66800;SDS011;53703;50.326;19.122;2023-11-21T01:09:15;5.10;;;3.00;;
66800;SDS011;53703;50.326;19.122;2023-11-21T01:11:49;6.40;;;3.10;;
66800;SDS011;53703;50.326;19.122;2023-11-21T01:14:22;6.20;;;2.80;;
66800;SDS011;53703;50.326;19.122;2023-11-21T01:16:57;6.00;;;3.10;;
66800;SDS011;53703;50.326;19.122;2023-11-21T01:19:31;5.80;;;3.30;;
66800;SDS011;53703;50.326;19.122;2023-11-21T01:22:04;5.70;;;3.00;;
66800;SDS011;53703;50.326;19.122;2023-11-21T01:24:39;6.70;;;2.70;;
66800;SDS011;53703;50.326;19.122;2023-11-21T01:27:12;6.70;;;3.10;;
66800;SDS011;53703;50.326;19.122;2023-11-21T01:29:46;5.60;;;2.60;;
66800;SDS011;53703;50.326;19.122;2023-11-21T01:32:19;5.60;;;2.60;;
66800;SDS011;53703;50.326;19.122;2023-11-21T01:34:52;8.50;;;3.00;;
66800;SDS011;53703;50.326;19.122;2023-11-21T01:37:26;7.00;;;3.00;;
66800;SDS011;53703;50.326;19.122;2023-11-21T01:40:01;4.60;;;2.60;;
66800;SDS011;53703;50.326;19.122;2023-11-21T01:42:38;3.80;;;2.50;;
66800;SDS011;53703;50.326;19.122;2023-11-21T01:45:12;5.50;;;2.90;;
66800;SDS011;53703;50.326;19.122;2023-11-21T01:47:46;8.50;;;2.90;;
66800;SDS011;53703;50.326;19.122;2023-11-21T01:50:19;8.40;;;2.60;;
66800;SDS011;53703;50.326;19.122;2023-11-21T01:52:53;4.40;;;2.50;;
66800;SDS011;53703;50.326;19.122;2023-11-21T01:55:27;5.50;;;2.70;;
66800;SDS011;53703;50.326;19.122;2023-11-21T01:58:01;6.40;;;3.10;;
66800;SDS011;53703;50.326;19.122;2023-11-21T02:00:35;8.50;;;2.80;;
66800;SDS011;53703;50.326;19.122;2023-11-21T02:03:09;4.80;;;2.50;;
66800;SDS011;53703;50.326;19.122;2023-11-21T02:05:42;5.60;;;2.50;;
66800;SDS011;53703;50.326;19.122;2023-11-21T02:08:16;6.20;;;2.80;;
66800;SDS011;53703;50.326;19.122;2023-11-21T02:10:50;4.40;;;2.30;;
66800;SDS011;53703;50.326;19.122;2023-11-21T02:13:23;7.30;;;2.70;;
66800;SDS011;53703;50.326;19.122;2023-11-21T02:15:57;6.50;;;2.50;;
66800;SDS011;53703;50.326;19.122;2023-11-21T02:18:30;5.90;;;2.50;;
66800;SDS011;53703;50.326;19.122;2023-11-21T02:21:06;7.40;;;2.40;;
66800;SDS011;53703;50.326;19.122;2023-11-21T02:23:40;6.30;;;2.80;;
66800;SDS011;53703;50.326;19.122;2023-11-21T02:26:15;4.40;;;2.40;;
66800;SDS011;53703;50.326;19.122;2023-11-21T02:28:48;5.30;;;2.60;;
66800;SDS011;53703;50.326;19.122;2023-11-21T02:31:24;4.50;;;2.30;;
66800;SDS011;53703;50.326;19.122;2023-11-21T02:33:58;4.20;;;2.40;;
66800;SDS011;53703;50.326;19.122;2023-11-21T02:36:31;4.60;;;2.00;;
66800;SDS011;53703;50.326;19.122;2023-11-21T02:39:05;4.30;;;2.60;;
66800;SDS011;53703;50.326;19.122;2023-11-21T02:41:39;6.30;;;2.60;;
66800;SDS011;53703;50.326;19.122;2023-11-21T02:44:12;4.60;;;2.50;;
66800;SDS011;53703;50.326;19.122;2023-11-21T02:46:46;5.40;;;2.30;;
66800;SDS011;53703;50.326;19.122;2023-11-21T02:49:19;5.70;;;2.50;;
66800;SDS011;53703;50.326;19.122;2023-11-21T02:51:53;5.20;;;2.80;;
66800;SDS011;53703;50.326;19.122;2023-11-21T02:54:26;4.90;;;2.50;;
66800;SDS011;53703;50.326;19.122;2023-11-21T02:57:00;5.50;;;2.40;;
66800;SDS011;53703;50.326;19.122;2023-11-21T02:59:33;4.40;;;2.40;;
66800;SDS011;53703;50.326;19.122;2023-11-21T03:02:07;4.60;;;2.60;;
66800;SDS011;53703;50.326;19.122;2023-11-21T03:04:40;5.00;;;2.50;;
66800;SDS011;53703;50.326;19.122;2023-11-21T03:07:14;4.50;;;2.20;;
66800;SDS011;53703;50.326;19.122;2023-11-21T03:09:47;4.80;;;2.30;;
66800;SDS011;53703;50.326;19.122;2023-11-21T03:12:21;5.90;;;2.60;;
66800;SDS011;53703;50.326;19.122;2023-11-21T03:14:54;4.80;;;2.20;;
66800;SDS011;53703;50.326;19.122;2023-11-21T03:17:27;4.80;;;2.30;;
66800;SDS011;53703;50.326;19.122;2023-11-21T03:20:01;5.00;;;2.20;;
66800;SDS011;53703;50.326;19.122;2023-11-21T03:22:35;4.30;;;2.10;;
66800;SDS011;53703;50.326;19.122;2023-11-21T03:25:10;4.40;;;2.10;;
66800;SDS011;53703;50.326;19.122;2023-11-21T03:27:44;3.20;;;2.00;;
66800;SDS011;53703;50.326;19.122;2023-11-21T03:30:18;4.20;;;2.20;;
66800;SDS011;53703;50.326;19.122;2023-11-21T03:32:51;3.40;;;2.30;;
66800;SDS011;53703;50.326;19.122;2023-11-21T03:35:25;5.50;;;2.40;;
66800;SDS011;53703;50.326;19.122;2023-11-21T03:37:58;4.80;;;2.10;;
66800;SDS011;53703;50.326;19.122;2023-11-21T03:40:32;5.30;;;2.80;;
66800;SDS011;53703;50.326;19.122;2023-11-21T03:43:06;4.20;;;2.10;;
66800;SDS011;53703;50.326;19.122;2023-11-21T03:45:39;3.60;;;2.20;;
66800;SDS011;53703;50.326;19.122;2023-11-21T03:48:13;4.60;;;2.00;;
66800;SDS011;53703;50.326;19.122;2023-11-21T03:50:47;4.40;;;2.30;;
66800;SDS011;53703;50.326;19.122;2023-11-21T03:53:20;4.20;;;2.10;;
66800;SDS011;53703;50.326;19.122;2023-11-21T03:55:53;4.60;;;1.80;;
66800;SDS011;53703;50.326;19.122;2023-11-21T03:58:27;4.90;;;2.60;;
66800;SDS011;53703;50.326;19.122;2023-11-21T04:01:00;4.90;;;2.20;;
66800;SDS011;53703;50.326;19.122;2023-11-21T04:03:33;4.20;;;2.10;;
66800;SDS011;53703;50.326;19.122;2023-11-21T04:06:08;5.10;;;2.60;;
66800;SDS011;53703;50.326;19.122;2023-11-21T04:08:41;5.30;;;2.10;;
66800;SDS011;53703;50.326;19.122;2023-11-21T04:11:15;4.30;;;2.10;;
66800;SDS011;53703;50.326;19.122;2023-11-21T04:13:48;5.50;;;2.50;;
66800;SDS011;53703;50.326;19.122;2023-11-21T04:16:22;4.60;;;2.10;;
66800;SDS011;53703;50.326;19.122;2023-11-21T04:18:55;4.20;;;2.20;;
66800;SDS011;53703;50.326;19.122;2023-11-21T04:21:29;4.10;;;1.90;;
66800;SDS011;53703;50.326;19.122;2023-11-21T04:24:04;4.30;;;2.20;;
66800;SDS011;53703;50.326;19.122;2023-11-21T04:26:38;5.40;;;2.10;;
66800;SDS011;53703;50.326;19.122;2023-11-21T04:29:12;4.10;;;2.00;;
66800;SDS011;53703;50.326;19.122;2023-11-21T04:31:46;3.80;;;2.20;;
66800;SDS011;53703;50.326;19.122;2023-11-21T04:34:20;2.90;;;1.80;;
66800;SDS011;53703;50.326;19.122;2023-11-21T04:36:53;3.40;;;1.70;;
66800;SDS011;53703;50.326;19.122;2023-11-21T04:39:26;3.30;;;1.80;;
66800;SDS011;53703;50.326;19.122;2023-11-21T04:42:00;3.40;;;1.80;;
66800;SDS011;53703;50.326;19.122;2023-11-21T04:44:34;4.50;;;2.10;;
66800;SDS011;53703;50.326;19.122;2023-11-21T04:47:07;4.30;;;2.20;;
66800;SDS011;53703;50.326;19.122;2023-11-21T04:49:43;3.60;;;2.00;;
66800;SDS011;53703;50.326;19.122;2023-11-21T04:52:17;3.80;;;1.70;;
66800;SDS011;53703;50.326;19.122;2023-11-21T04:54:51;3.20;;;1.70;;
66800;SDS011;53703;50.326;19.122;2023-11-21T04:57:25;3.90;;;1.80;;
66800;SDS011;53703;50.326;19.122;2023-11-21T04:59:59;3.10;;;1.80;;
66800;SDS011;53703;50.326;19.122;2023-11-21T05:02:36;3.50;;;1.80;;
66800;SDS011;53703;50.326;19.122;2023-11-21T05:05:10;3.90;;;1.90;;
66800;SDS011;53703;50.326;19.122;2023-11-21T05:07:45;3.30;;;1.80;;
66800;SDS011;53703;50.326;19.122;2023-11-21T05:10:19;4.20;;;1.90;;
66800;SDS011;53703;50.326;19.122;2023-11-21T05:12:53;4.00;;;1.80;;
66800;SDS011;53703;50.326;19.122;2023-11-21T05:15:27;3.30;;;1.70;;
66800;SDS011;53703;50.326;19.122;2023-11-21T05:18:00;4.10;;;2.00;;
66800;SDS011;53703;50.326;19.122;2023-11-21T05:20:34;3.30;;;2.00;;
66800;SDS011;53703;50.326;19.122;2023-11-21T05:23:08;4.30;;;2.00;;
66800;SDS011;53703;50.326;19.122;2023-11-21T05:25:42;4.90;;;1.90;;
66800;SDS011;53703;50.326;19.122;2023-11-21T05:28:16;3.20;;;1.70;;
66800;SDS011;53703;50.326;19.122;2023-11-21T05:30:50;3.10;;;1.80;;
66800;SDS011;53703;50.326;19.122;2023-11-21T05:33:44;3.70;;;2.00;;
66800;SDS011;53703;50.326;19.122;2023-11-21T05:36:18;3.10;;;1.90;;
66800;SDS011;53703;50.326;19.122;2023-11-21T05:38:51;5.40;;;2.00;;
66800;SDS011;53703;50.326;19.122;2023-11-21T05:41:25;2.40;;;1.40;;
66800;SDS011;53703;50.326;19.122;2023-11-21T05:43:58;7.00;;;1.90;;
66800;SDS011;53703;50.326;19.122;2023-11-21T05:46:32;3.30;;;1.70;;
66800;SDS011;53703;50.326;19.122;2023-11-21T05:49:06;4.30;;;2.00;;
66800;SDS011;53703;50.326;19.122;2023-11-21T05:51:40;3.90;;;1.80;;
66800;SDS011;53703;50.326;19.122;2023-11-21T05:54:13;5.20;;;2.00;;
66800;SDS011;53703;50.326;19.122;2023-11-21T05:56:47;3.80;;;1.80;;
66800;SDS011;53703;50.326;19.122;2023-11-21T05:59:20;2.70;;;1.60;;
66800;SDS011;53703;50.326;19.122;2023-11-21T06:01:54;3.20;;;1.60;;
66800;SDS011;53703;50.326;19.122;2023-11-21T06:04:29;3.00;;;1.60;;
66800;SDS011;53703;50.326;19.122;2023-11-21T06:07:03;2.80;;;1.60;;
66800;SDS011;53703;50.326;19.122;2023-11-21T06:09:36;3.20;;;1.80;;
66800;SDS011;53703;50.326;19.122;2023-11-21T06:12:10;3.00;;;1.70;;
66800;SDS011;53703;50.326;19.122;2023-11-21T06:14:43;3.70;;;1.90;;
66800;SDS011;53703;50.326;19.122;2023-11-21T06:17:18;3.30;;;1.50;;
66800;SDS011;53703;50.326;19.122;2023-11-21T06:19:52;4.30;;;2.10;;
66800;SDS011;53703;50.326;19.122;2023-11-21T06:22:26;2.80;;;1.60;;
66800;SDS011;53703;50.326;19.122;2023-11-21T06:25:01;2.40;;;1.40;;
66800;SDS011;53703;50.326;19.122;2023-11-21T06:27:37;4.00;;;1.80;;
66800;SDS011;53703;50.326;19.122;2023-11-21T06:30:13;3.20;;;1.60;;
66800;SDS011;53703;50.326;19.122;2023-11-21T06:32:47;4.00;;;1.70;;
66800;SDS011;53703;50.326;19.122;2023-11-21T06:35:22;3.20;;;1.70;;
66800;SDS011;53703;50.326;19.122;2023-11-21T06:37:55;3.40;;;1.80;;
66800;SDS011;53703;50.326;19.122;2023-11-21T06:40:29;4.00;;;1.70;;
66800;SDS011;53703;50.326;19.122;2023-11-21T06:43:04;2.80;;;1.80;;
66800;SDS011;53703;50.326;19.122;2023-11-21T06:45:38;3.50;;;1.70;;
66800;SDS011;53703;50.326;19.122;2023-11-21T06:48:11;3.20;;;1.80;;
66800;SDS011;53703;50.326;19.122;2023-11-21T06:50:45;2.40;;;1.60;;
66800;SDS011;53703;50.326;19.122;2023-11-21T06:53:19;5.10;;;2.10;;
66800;SDS011;53703;50.326;19.122;2023-11-21T06:55:52;2.90;;;2.00;;
66800;SDS011;53703;50.326;19.122;2023-11-21T06:58:25;3.60;;;1.80;;
66800;SDS011;53703;50.326;19.122;2023-11-21T07:00:59;3.10;;;1.60;;
66800;SDS011;53703;50.326;19.122;2023-11-21T07:03:33;3.30;;;1.80;;
66800;SDS011;53703;50.326;19.122;2023-11-21T07:06:09;3.40;;;1.90;;
66800;SDS011;53703;50.326;19.122;2023-11-21T07:08:44;5.80;;;1.80;;
66800;SDS011;53703;50.326;19.122;2023-11-21T07:11:18;4.50;;;2.20;;
66800;SDS011;53703;50.326;19.122;2023-11-21T07:13:51;4.00;;;1.80;;
66800;SDS011;53703;50.326;19.122;2023-11-21T07:16:25;3.90;;;1.90;;
66800;SDS011;53703;50.326;19.122;2023-11-21T07:19:00;3.50;;;1.70;;
66800;SDS011;53703;50.326;19.122;2023-11-21T07:21:36;7.90;;;1.90;;
66800;SDS011;53703;50.326;19.122;2023-11-21T07:24:10;5.70;;;2.10;;
66800;SDS011;53703;50.326;19.122;2023-11-21T07:26:44;3.20;;;1.90;;
66800;SDS011;53703;50.326;19.122;2023-11-21T07:29:18;7.30;;;2.20;;
66800;SDS011;53703;50.326;19.122;2023-11-21T07:31:52;4.20;;;2.20;;
66800;SDS011;53703;50.326;19.122;2023-11-21T07:34:26;5.60;;;2.30;;
66800;SDS011;53703;50.326;19.122;2023-11-21T07:36:59;4.30;;;2.40;;
66800;SDS011;53703;50.326;19.122;2023-11-21T07:39:33;4.90;;;2.20;;
66800;SDS011;53703;50.326;19.122;2023-11-21T07:42:06;6.10;;;2.20;;
66800;SDS011;53703;50.326;19.122;2023-11-21T07:44:41;5.70;;;2.30;;
66800;SDS011;53703;50.326;19.122;2023-11-21T07:47:17;5.30;;;2.20;;
66800;SDS011;53703;50.326;19.122;2023-11-21T07:49:50;3.60;;;2.30;;
66800;SDS011;53703;50.326;19.122;2023-11-21T07:52:24;4.80;;;2.10;;
66800;SDS011;53703;50.326;19.122;2023-11-21T07:54:57;4.20;;;2.30;;
66800;SDS011;53703;50.326;19.122;2023-11-21T07:57:32;8.30;;;2.50;;
66800;SDS011;53703;50.326;19.122;2023-11-21T08:00:07;4.40;;;2.50;;
66800;SDS011;53703;50.326;19.122;2023-11-21T08:02:43;4.90;;;2.70;;
66800;SDS011;53703;50.326;19.122;2023-11-21T08:05:17;4.20;;;2.50;;
66800;SDS011;53703;50.326;19.122;2023-11-21T08:08:02;4.90;;;2.50;;
66800;SDS011;53703;50.326;19.122;2023-11-21T08:10:35;5.90;;;2.80;;
66800;SDS011;53703;50.326;19.122;2023-11-21T08:13:09;6.60;;;2.90;;
66800;SDS011;53703;50.326;19.122;2023-11-21T08:15:45;5.80;;;3.10;;
66800;SDS011;53703;50.326;19.122;2023-11-21T08:18:18;5.10;;;2.80;;
66800;SDS011;53703;50.326;19.122;2023-11-21T08:20:52;5.60;;;2.80;;
66800;SDS011;53703;50.326;19.122;2023-11-21T08:23:26;8.20;;;2.80;;
66800;SDS011;53703;50.326;19.122;2023-11-21T08:26:00;6.40;;;3.10;;
66800;SDS011;53703;50.326;19.122;2023-11-21T08:28:36;4.80;;;2.50;;
66800;SDS011;53703;50.326;19.122;2023-11-21T08:31:09;8.70;;;3.00;;
66800;SDS011;53703;50.326;19.122;2023-11-21T08:33:45;6.10;;;3.10;;
66800;SDS011;53703;50.326;19.122;2023-11-21T08:36:19;6.70;;;3.30;;
66800;SDS011;53703;50.326;19.122;2023-11-21T08:38:53;6.20;;;3.50;;
66800;SDS011;53703;50.326;19.122;2023-11-21T08:41:27;5.90;;;3.50;;
66800;SDS011;53703;50.326;19.122;2023-11-21T08:44:01;8.60;;;3.50;;
66800;SDS011;53703;50.326;19.122;2023-11-21T08:46:37;6.50;;;3.60;;
66800;SDS011;53703;50.326;19.122;2023-11-21T08:49:12;5.90;;;3.30;;
66800;SDS011;53703;50.326;19.122;2023-11-21T08:51:46;6.10;;;3.40;;
66800;SDS011;53703;50.326;19.122;2023-11-21T08:54:20;8.90;;;3.50;;
66800;SDS011;53703;50.326;19.122;2023-11-21T08:56:54;7.20;;;3.90;;
66800;SDS011;53703;50.326;19.122;2023-11-21T08:59:28;7.30;;;3.60;;
66800;SDS011;53703;50.326;19.122;2023-11-21T09:02:04;8.10;;;3.50;;
66800;SDS011;53703;50.326;19.122;2023-11-21T09:04:38;7.90;;;4.20;;
66800;SDS011;53703;50.326;19.122;2023-11-21T09:07:13;6.20;;;3.70;;
66800;SDS011;53703;50.326;19.122;2023-11-21T09:09:47;6.10;;;3.70;;
66800;SDS011;53703;50.326;19.122;2023-11-21T09:12:21;10.00;;;4.30;;
66800;SDS011;53703;50.326;19.122;2023-11-21T09:14:55;7.90;;;3.60;;
66800;SDS011;53703;50.326;19.122;2023-11-21T09:17:29;6.90;;;4.30;;
66800;SDS011;53703;50.326;19.122;2023-11-21T09:20:03;6.50;;;3.60;;
66800;SDS011;53703;50.326;19.122;2023-11-21T09:22:41;7.00;;;3.90;;
66800;SDS011;53703;50.326;19.122;2023-11-21T09:25:15;8.00;;;3.80;;
66800;SDS011;53703;50.326;19.122;2023-11-21T09:27:49;6.50;;;3.50;;
66800;SDS011;53703;50.326;19.122;2023-11-21T09:30:22;10.00;;;3.80;;
66800;SDS011;53703;50.326;19.122;2023-11-21T09:32:56;7.40;;;3.80;;
66800;SDS011;53703;50.326;19.122;2023-11-21T09:35:31;7.20;;;4.10;;
66800;SDS011;53703;50.326;19.122;2023-11-21T09:38:04;8.50;;;3.80;;
66800;SDS011;53703;50.326;19.122;2023-11-21T09:40:40;7.80;;;3.30;;
66800;SDS011;53703;50.326;19.122;2023-11-21T09:43:17;9.20;;;4.30;;
66800;SDS011;53703;50.326;19.122;2023-11-21T09:45:56;6.10;;;3.20;;
66800;SDS011;53703;50.326;19.122;2023-11-21T09:48:34;6.70;;;3.30;;
66800;SDS011;53703;50.326;19.122;2023-11-21T09:51:10;6.70;;;3.50;;
66800;SDS011;53703;50.326;19.122;2023-11-21T09:53:44;8.00;;;4.10;;
66800;SDS011;53703;50.326;19.122;2023-11-21T09:56:20;7.10;;;3.70;;
66800;SDS011;53703;50.326;19.122;2023-11-21T09:58:56;6.40;;;3.80;;
66800;SDS011;53703;50.326;19.122;2023-11-21T10:01:35;9.60;;;3.80;;
66800;SDS011;53703;50.326;19.122;2023-11-21T10:04:10;7.20;;;4.10;;
66800;SDS011;53703;50.326;19.122;2023-11-21T10:06:44;6.40;;;3.40;;
66800;SDS011;53703;50.326;19.122;2023-11-21T10:09:18;7.70;;;3.80;;
66800;SDS011;53703;50.326;19.122;2023-11-21T10:11:52;7.50;;;3.60;;
66800;SDS011;53703;50.326;19.122;2023-11-21T10:14:27;8.70;;;3.90;;
66800;SDS011;53703;50.326;19.122;2023-11-21T10:17:02;7.10;;;3.60;;
66800;SDS011;53703;50.326;19.122;2023-11-21T10:19:39;6.20;;;4.00;;
66800;SDS011;53703;50.326;19.122;2023-11-21T10:22:13;7.10;;;3.30;;
66800;SDS011;53703;50.326;19.122;2023-11-21T10:24:47;7.70;;;3.70;;
66800;SDS011;53703;50.326;19.122;2023-11-21T10:27:24;5.50;;;3.40;;
66800;SDS011;53703;50.326;19.122;2023-11-21T10:30:01;7.60;;;3.60;;
66800;SDS011;53703;50.326;19.122;2023-11-21T10:32:35;7.30;;;3.90;;
66800;SDS011;53703;50.326;19.122;2023-11-21T10:35:09;6.60;;;3.80;;
66800;SDS011;53703;50.326;19.122;2023-11-21T10:37:43;7.20;;;3.80;;
66800;SDS011;53703;50.326;19.122;2023-11-21T10:40:31;7.50;;;4.10;;
66800;SDS011;53703;50.326;19.122;2023-11-21T10:43:08;5.70;;;3.50;;
66800;SDS011;53703;50.326;19.122;2023-11-21T10:45:44;7.10;;;3.70;;
66800;SDS011;53703;50.326;19.122;2023-11-21T10:48:17;8.20;;;3.70;;
66800;SDS011;53703;50.326;19.122;2023-11-21T10:50:52;8.90;;;4.10;;
66800;SDS011;53703;50.326;19.122;2023-11-21T10:53:29;6.30;;;3.40;;
66800;SDS011;53703;50.326;19.122;2023-11-21T10:56:05;8.00;;;3.80;;
66800;SDS011;53703;50.326;19.122;2023-11-21T10:58:41;6.80;;;4.30;;
66800;SDS011;53703;50.326;19.122;2023-11-21T11:01:15;7.10;;;3.80;;
66800;SDS011;53703;50.326;19.122;2023-11-21T11:03:52;6.10;;;3.80;;
66800;SDS011;53703;50.326;19.122;2023-11-21T11:06:26;7.40;;;4.10;;
66800;SDS011;53703;50.326;19.122;2023-11-21T11:09:00;6.50;;;3.70;;
66800;SDS011;53703;50.326;19.122;2023-11-21T11:11:34;6.70;;;3.80;;
66800;SDS011;53703;50.326;19.122;2023-11-21T11:14:10;7.50;;;3.90;;
66800;SDS011;53703;50.326;19.122;2023-11-21T11:16:44;5.70;;;4.10;;
66800;SDS011;53703;50.326;19.122;2023-11-21T11:19:20;6.60;;;3.50;;
66800;SDS011;53703;50.326;19.122;2023-11-21T11:25:13;6.00;;;3.30;;
66800;SDS011;53703;50.326;19.122;2023-11-21T11:28:00;8.40;;;4.20;;
66800;SDS011;53703;50.326;19.122;2023-11-21T11:30:47;7.90;;;4.00;;
66800;SDS011;53703;50.326;19.122;2023-11-21T11:33:34;7.00;;;3.90;;
66800;SDS011;53703;50.326;19.122;2023-11-21T11:36:15;7.30;;;3.50;;
66800;SDS011;53703;50.326;19.122;2023-11-21T11:38:54;7.00;;;3.80;;
66800;SDS011;53703;50.326;19.122;2023-11-21T11:41:29;11.10;;;4.00;;
66800;SDS011;53703;50.326;19.122;2023-11-21T11:44:09;7.40;;;3.50;;
66800;SDS011;53703;50.326;19.122;2023-11-21T11:47:24;9.10;;;3.70;;
66800;SDS011;53703;50.326;19.122;2023-11-21T11:50:05;8.50;;;3.80;;
66800;SDS011;53703;50.326;19.122;2023-11-21T11:52:45;6.50;;;3.70;;
66800;SDS011;53703;50.326;19.122;2023-11-21T11:55:20;7.70;;;3.70;;
66800;SDS011;53703;50.326;19.122;2023-11-21T11:57:55;10.70;;;4.00;;
66800;SDS011;53703;50.326;19.122;2023-11-21T12:00:36;14.10;;;3.80;;
66800;SDS011;53703;50.326;19.122;2023-11-21T12:03:10;9.50;;;3.70;;
66800;SDS011;53703;50.326;19.122;2023-11-21T12:05:46;7.90;;;3.70;;
66800;SDS011;53703;50.326;19.122;2023-11-21T12:08:23;9.10;;;3.50;;
66800;SDS011;53703;50.326;19.122;2023-11-21T12:13:35;8.60;;;3.60;;
66800;SDS011;53703;50.326;19.122;2023-11-21T12:16:09;9.90;;;3.40;;
66800;SDS011;53703;50.326;19.122;2023-11-21T12:18:43;5.80;;;3.10;;
66800;SDS011;53703;50.326;19.122;2023-11-21T12:21:16;5.60;;;3.40;;
66800;SDS011;53703;50.326;19.122;2023-11-21T12:23:50;6.20;;;3.50;;
66800;SDS011;53703;50.326;19.122;2023-11-21T12:26:25;8.20;;;3.50;;
66800;SDS011;53703;50.326;19.122;2023-11-21T12:28:58;8.10;;;3.40;;
66800;SDS011;53703;50.326;19.122;2023-11-21T12:31:35;5.30;;;3.40;;
66800;SDS011;53703;50.326;19.122;2023-11-21T12:34:08;7.50;;;3.50;;
66800;SDS011;53703;50.326;19.122;2023-11-21T12:36:42;5.30;;;3.30;;
66800;SDS011;53703;50.326;19.122;2023-11-21T12:39:16;8.10;;;3.10;;
66800;SDS011;53703;50.326;19.122;2023-11-21T12:41:53;8.00;;;3.40;;
66800;SDS011;53703;50.326;19.122;2023-11-21T12:44:27;7.70;;;3.60;;
66800;SDS011;53703;50.326;19.122;2023-11-21T12:47:00;5.10;;;2.60;;
66800;SDS011;53703;50.326;19.122;2023-11-21T12:49:35;6.10;;;3.50;;
66800;SDS011;53703;50.326;19.122;2023-11-21T12:52:09;6.10;;;3.20;;
66800;SDS011;53703;50.326;19.122;2023-11-21T12:54:42;8.50;;;3.30;;
66800;SDS011;53703;50.326;19.122;2023-11-21T12:57:19;5.10;;;3.00;;
66800;SDS011;53703;50.326;19.122;2023-11-21T12:59:59;8.40;;;3.80;;
66800;SDS011;53703;50.326;19.122;2023-11-21T13:02:42;4.90;;;2.80;;
66800;SDS011;53703;50.326;19.122;2023-11-21T13:05:24;5.60;;;3.00;;
66800;SDS011;53703;50.326;19.122;2023-11-21T13:07:59;6.50;;;3.10;;
66800;SDS011;53703;50.326;19.122;2023-11-21T13:10:35;6.70;;;3.10;;
66800;SDS011;53703;50.326;19.122;2023-11-21T13:13:09;5.50;;;3.00;;
66800;SDS011;53703;50.326;19.122;2023-11-21T13:15:53;5.50;;;3.00;;
66800;SDS011;53703;50.326;19.122;2023-11-21T13:18:28;7.00;;;3.20;;
66800;SDS011;53703;50.326;19.122;2023-11-21T13:21:03;5.60;;;3.10;;
66800;SDS011;53703;50.326;19.122;2023-11-21T13:23:42;8.50;;;3.20;;
66800;SDS011;53703;50.326;19.122;2023-11-21T13:26:17;6.60;;;2.80;;
66800;SDS011;53703;50.326;19.122;2023-11-21T13:28:51;9.00;;;3.10;;
66800;SDS011;53703;50.326;19.122;2023-11-21T13:31:24;5.90;;;2.90;;
66800;SDS011;53703;50.326;19.122;2023-11-21T13:34:01;7.50;;;3.30;;
66800;SDS011;53703;50.326;19.122;2023-11-21T13:36:38;5.40;;;2.80;;
66800;SDS011;53703;50.326;19.122;2023-11-21T13:39:13;6.20;;;3.10;;
66800;SDS011;53703;50.326;19.122;2023-11-21T13:41:48;5.30;;;2.90;;
66800;SDS011;53703;50.326;19.122;2023-11-21T13:44:25;7.20;;;3.10;;
66800;SDS011;53703;50.326;19.122;2023-11-21T13:47:05;9.50;;;3.20;;
66800;SDS011;53703;50.326;19.122;2023-11-21T13:49:39;7.30;;;3.50;;
66800;SDS011;53703;50.326;19.122;2023-11-21T13:52:13;7.70;;;3.60;;
66800;SDS011;53703;50.326;19.122;2023-11-21T13:54:51;7.80;;;3.30;;
66800;SDS011;53703;50.326;19.122;2023-11-21T13:57:24;6.20;;;3.50;;
66800;SDS011;53703;50.326;19.122;2023-11-21T13:59:59;9.40;;;3.40;;
66800;SDS011;53703;50.326;19.122;2023-11-21T14:02:56;8.80;;;3.50;;
66800;SDS011;53703;50.326;19.122;2023-11-21T14:05:31;10.20;;;3.70;;
66800;SDS011;53703;50.326;19.122;2023-11-21T14:08:05;6.10;;;3.50;;
66800;SDS011;53703;50.326;19.122;2023-11-21T14:10:39;7.40;;;4.00;;
66800;SDS011;53703;50.326;19.122;2023-11-21T14:13:14;7.90;;;3.80;;
66800;SDS011;53703;50.326;19.122;2023-11-21T14:15:47;5.80;;;3.10;;
66800;SDS011;53703;50.326;19.122;2023-11-21T14:18:23;7.00;;;3.90;;
66800;SDS011;53703;50.326;19.122;2023-11-21T14:21:01;7.80;;;3.70;;
66800;SDS011;53703;50.326;19.122;2023-11-21T14:23:36;7.80;;;3.60;;
66800;SDS011;53703;50.326;19.122;2023-11-21T14:26:10;7.00;;;3.90;;
66800;SDS011;53703;50.326;19.122;2023-11-21T14:28:44;8.10;;;4.20;;
66800;SDS011;53703;50.326;19.122;2023-11-21T14:31:19;7.50;;;3.40;;
66800;SDS011;53703;50.326;19.122;2023-11-21T14:33:54;7.10;;;3.90;;
66800;SDS011;53703;50.326;19.122;2023-11-21T14:36:28;8.10;;;4.00;;
66800;SDS011;53703;50.326;19.122;2023-11-21T14:39:02;7.50;;;4.00;;
66800;SDS011;53703;50.326;19.122;2023-11-21T14:41:39;7.50;;;4.20;;
66800;SDS011;53703;50.326;19.122;2023-11-21T14:44:15;9.30;;;4.20;;
66800;SDS011;53703;50.326;19.122;2023-11-21T14:46:48;8.10;;;4.10;;
66800;SDS011;53703;50.326;19.122;2023-11-21T14:49:24;8.80;;;4.10;;
66800;SDS011;53703;50.326;19.122;2023-11-21T14:52:01;7.70;;;4.30;;
66800;SDS011;53703;50.326;19.122;2023-11-21T14:54:44;8.60;;;4.20;;
66800;SDS011;53703;50.326;19.122;2023-11-21T14:57:22;4.60;;;3.90;;
66800;SDS011;53703;50.326;19.122;2023-11-21T14:59:57;9.20;;;4.30;;
66800;SDS011;53703;50.326;19.122;2023-11-21T15:02:31;7.90;;;4.20;;
66800;SDS011;53703;50.326;19.122;2023-11-21T15:05:33;8.40;;;5.00;;
66800;SDS011;53703;50.326;19.122;2023-11-21T15:08:09;6.90;;;4.20;;
66800;SDS011;53703;50.326;19.122;2023-11-21T15:10:52;7.00;;;4.00;;
66800;SDS011;53703;50.326;19.122;2023-11-21T15:13:26;8.60;;;4.50;;
66800;SDS011;53703;50.326;19.122;2023-11-21T15:16:01;9.70;;;4.60;;
66800;SDS011;53703;50.326;19.122;2023-11-21T15:18:38;8.90;;;4.40;;
66800;SDS011;53703;50.326;19.122;2023-11-21T15:21:12;8.30;;;4.60;;
66800;SDS011;53703;50.326;19.122;2023-11-21T15:23:45;9.10;;;4.70;;
66800;SDS011;53703;50.326;19.122;2023-11-21T15:26:19;7.10;;;4.50;;